sensor_id;sensor_type;location;lat;lon;timestamp;P1;durP1;ratioP1;P2;durP2;ratioP2
13090;SDS011;6611;52.604;13.438;2023-02-11T00:01:12;27.70;;;13.70;;
13090;SDS011;6611;52.604;13.438;2023-02-11T00:06:20;26.60;;;13.73;;
13090;SDS011;6611;52.604;13.438;2023-02-11T00:11:23;29.50;;;13.10;;
13090;SDS011;6611;52.604;13.438;2023-02-11T00:16:29;29.27;;;13.80;;
13090;SDS011;6611;52.604;13.438;2023-02-11T00:21:32;27.70;;;13.53;;
13090;SDS011;6611;52.604;13.438;2023-02-11T00:26:34;28.30;;;14.23;;
13090;SDS011;6611;52.604;13.438;2023-02-11T00:31:37;25.97;;;13.57;;
13090;SDS011;6611;52.604;13.438;2023-02-11T00:36:40;27.03;;;13.57;;
13090;SDS011;6611;52.604;13.438;2023-02-11T00:41:42;25.17;;;14.00;;
13090;SDS011;6611;52.604;13.438;2023-02-11T00:46:44;26.50;;;13.70;;
13090;SDS011;6611;52.604;13.438;2023-02-11T00:51:47;26.37;;;13.43;;
13090;SDS011;6611;52.604;13.438;2023-02-11T00:56:48;24.90;;;13.40;;
13090;SDS011;6611;52.604;13.438;2023-02-11T01:01:50;26.40;;;13.27;;
13090;SDS011;6611;52.604;13.438;2023-02-11T01:06:53;27.57;;;13.97;;
13090;SDS011;6611;52.604;13.438;2023-02-11T01:11:55;23.30;;;13.47;;
13090;SDS011;6611;52.604;13.438;2023-02-11T01:16:56;26.60;;;13.27;;
13090;SDS011;6611;52.604;13.438;2023-02-11T01:22:00;24.87;;;13.37;;
13090;SDS011;6611;52.604;13.438;2023-02-11T01:27:01;25.17;;;13.47;;
13090;SDS011;6611;52.604;13.438;2023-02-11T01:32:03;24.60;;;13.30;;
13090;SDS011;6611;52.604;13.438;2023-02-11T01:37:06;27.43;;;14.77;;
13090;SDS011;6611;52.604;13.438;2023-02-11T01:42:08;27.27;;;13.37;;
13090;SDS011;6611;52.604;13.438;2023-02-11T01:47:11;29.20;;;15.07;;
13090;SDS011;6611;52.604;13.438;2023-02-11T01:52:15;24.70;;;13.97;;
13090;SDS011;6611;52.604;13.438;2023-02-11T01:57:21;23.37;;;13.93;;
13090;SDS011;6611;52.604;13.438;2023-02-11T02:02:28;26.73;;;13.40;;
13090;SDS011;6611;52.604;13.438;2023-02-11T02:07:38;31.23;;;15.30;;
13090;SDS011;6611;52.604;13.438;2023-02-11T02:12:46;29.67;;;14.37;;
13090;SDS011;6611;52.604;13.438;2023-02-11T02:17:51;24.47;;;13.87;;
13090;SDS011;6611;52.604;13.438;2023-02-11T02:28:35;22.87;;;13.40;;
13090;SDS011;6611;52.604;13.438;2023-02-11T02:33:58;25.33;;;14.17;;
13090;SDS011;6611;52.604;13.438;2023-02-11T02:39:05;26.53;;;14.27;;
13090;SDS011;6611;52.604;13.438;2023-02-11T02:44:09;26.27;;;14.27;;
13090;SDS011;6611;52.604;13.438;2023-02-11T02:49:14;26.73;;;14.03;;
13090;SDS011;6611;52.604;13.438;2023-02-11T02:54:42;27.37;;;14.07;;
13090;SDS011;6611;52.604;13.438;2023-02-11T03:00:09;24.37;;;13.50;;
13090;SDS011;6611;52.604;13.438;2023-02-11T03:05:20;28.43;;;14.10;;
13090;SDS011;6611;52.604;13.438;2023-02-11T03:10:24;26.20;;;13.93;;
13090;SDS011;6611;52.604;13.438;2023-02-11T03:15:29;26.97;;;14.90;;
13090;SDS011;6611;52.604;13.438;2023-02-11T03:20:36;31.40;;;15.70;;
13090;SDS011;6611;52.604;13.438;2023-02-11T03:25:43;26.97;;;14.50;;
13090;SDS011;6611;52.604;13.438;2023-02-11T03:30:51;27.33;;;13.97;;
13090;SDS011;6611;52.604;13.438;2023-02-11T03:35:59;29.73;;;15.90;;
13090;SDS011;6611;52.604;13.438;2023-02-11T03:41:05;27.80;;;15.37;;
13090;SDS011;6611;52.604;13.438;2023-02-11T03:46:09;27.10;;;14.33;;
13090;SDS011;6611;52.604;13.438;2023-02-11T03:51:14;30.53;;;14.83;;
13090;SDS011;6611;52.604;13.438;2023-02-11T03:56:18;25.53;;;15.10;;
13090;SDS011;6611;52.604;13.438;2023-02-11T04:01:23;30.03;;;15.70;;
13090;SDS011;6611;52.604;13.438;2023-02-11T04:06:26;25.93;;;14.60;;
13090;SDS011;6611;52.604;13.438;2023-02-11T04:11:28;30.63;;;15.57;;
13090;SDS011;6611;52.604;13.438;2023-02-11T04:16:30;29.43;;;15.13;;
13090;SDS011;6611;52.604;13.438;2023-02-11T04:21:33;29.67;;;16.43;;
13090;SDS011;6611;52.604;13.438;2023-02-11T04:26:34;29.40;;;15.23;;
13090;SDS011;6611;52.604;13.438;2023-02-11T04:31:36;26.97;;;16.63;;
13090;SDS011;6611;52.604;13.438;2023-02-11T04:36:39;32.40;;;16.27;;
13090;SDS011;6611;52.604;13.438;2023-02-11T04:41:41;29.80;;;14.93;;
13090;SDS011;6611;52.604;13.438;2023-02-11T04:46:42;30.90;;;16.87;;
13090;SDS011;6611;52.604;13.438;2023-02-11T04:51:46;27.90;;;15.30;;
13090;SDS011;6611;52.604;13.438;2023-02-11T04:56:47;28.67;;;16.63;;
13090;SDS011;6611;52.604;13.438;2023-02-11T05:01:50;27.40;;;15.80;;
13090;SDS011;6611;52.604;13.438;2023-02-11T05:06:53;29.03;;;16.50;;
13090;SDS011;6611;52.604;13.438;2023-02-11T05:11:54;34.27;;;17.33;;
13090;SDS011;6611;52.604;13.438;2023-02-11T05:16:56;33.70;;;17.47;;
13090;SDS011;6611;52.604;13.438;2023-02-11T05:21:59;30.80;;;17.27;;
13090;SDS011;6611;52.604;13.438;2023-02-11T05:27:01;29.20;;;17.30;;
13090;SDS011;6611;52.604;13.438;2023-02-11T05:32:03;35.57;;;18.37;;
13090;SDS011;6611;52.604;13.438;2023-02-11T05:37:07;32.67;;;17.97;;
13090;SDS011;6611;52.604;13.438;2023-02-11T05:42:09;34.10;;;18.47;;
13090;SDS011;6611;52.604;13.438;2023-02-11T05:47:11;35.77;;;18.77;;
13090;SDS011;6611;52.604;13.438;2023-02-11T05:52:14;35.43;;;18.53;;
13090;SDS011;6611;52.604;13.438;2023-02-11T05:57:15;38.30;;;19.50;;
13090;SDS011;6611;52.604;13.438;2023-02-11T06:02:17;35.57;;;19.03;;
13090;SDS011;6611;52.604;13.438;2023-02-11T06:07:21;35.97;;;20.10;;
13090;SDS011;6611;52.604;13.438;2023-02-11T06:12:22;39.37;;;19.20;;
13090;SDS011;6611;52.604;13.438;2023-02-11T06:17:24;38.70;;;19.90;;
13090;SDS011;6611;52.604;13.438;2023-02-11T06:22:29;34.33;;;19.03;;
13090;SDS011;6611;52.604;13.438;2023-02-11T06:27:30;38.63;;;20.33;;
13090;SDS011;6611;52.604;13.438;2023-02-11T06:32:32;38.77;;;20.90;;
13090;SDS011;6611;52.604;13.438;2023-02-11T06:37:35;36.80;;;20.37;;
13090;SDS011;6611;52.604;13.438;2023-02-11T06:42:37;39.87;;;21.07;;
13090;SDS011;6611;52.604;13.438;2023-02-11T06:47:38;37.33;;;20.23;;
13090;SDS011;6611;52.604;13.438;2023-02-11T06:52:42;39.17;;;20.73;;
13090;SDS011;6611;52.604;13.438;2023-02-11T06:57:44;40.63;;;20.40;;
13090;SDS011;6611;52.604;13.438;2023-02-11T07:02:45;40.33;;;21.17;;
13090;SDS011;6611;52.604;13.438;2023-02-11T07:07:48;44.07;;;21.70;;
13090;SDS011;6611;52.604;13.438;2023-02-11T07:12:50;45.07;;;21.90;;
13090;SDS011;6611;52.604;13.438;2023-02-11T07:17:52;39.07;;;20.17;;
13090;SDS011;6611;52.604;13.438;2023-02-11T07:22:55;42.67;;;21.57;;
13090;SDS011;6611;52.604;13.438;2023-02-11T07:27:57;43.43;;;21.90;;
13090;SDS011;6611;52.604;13.438;2023-02-11T07:32:59;39.13;;;20.50;;
13090;SDS011;6611;52.604;13.438;2023-02-11T07:38:02;43.00;;;21.97;;
13090;SDS011;6611;52.604;13.438;2023-02-11T07:43:03;41.43;;;20.47;;
13090;SDS011;6611;52.604;13.438;2023-02-11T07:48:05;44.43;;;22.03;;
13090;SDS011;6611;52.604;13.438;2023-02-11T07:53:08;48.80;;;22.53;;
13090;SDS011;6611;52.604;13.438;2023-02-11T07:58:10;40.33;;;21.93;;
13090;SDS011;6611;52.604;13.438;2023-02-11T08:03:11;40.60;;;20.53;;
13090;SDS011;6611;52.604;13.438;2023-02-11T08:08:14;40.67;;;20.40;;
13090;SDS011;6611;52.604;13.438;2023-02-11T08:13:16;40.83;;;20.17;;
13090;SDS011;6611;52.604;13.438;2023-02-11T08:18:18;39.13;;;20.03;;
13090;SDS011;6611;52.604;13.438;2023-02-11T08:23:21;45.90;;;20.67;;
13090;SDS011;6611;52.604;13.438;2023-02-11T08:28:23;38.77;;;20.80;;
13090;SDS011;6611;52.604;13.438;2023-02-11T08:33:25;41.20;;;20.83;;
13090;SDS011;6611;52.604;13.438;2023-02-11T08:38:28;45.47;;;21.30;;
13090;SDS011;6611;52.604;13.438;2023-02-11T08:43:29;43.13;;;22.23;;
13090;SDS011;6611;52.604;13.438;2023-02-11T08:48:32;49.43;;;22.00;;
13090;SDS011;6611;52.604;13.438;2023-02-11T08:53:35;44.83;;;20.00;;
13090;SDS011;6611;52.604;13.438;2023-02-11T08:58:37;44.50;;;20.57;;
13090;SDS011;6611;52.604;13.438;2023-02-11T09:03:39;40.13;;;21.70;;
13090;SDS011;6611;52.604;13.438;2023-02-11T09:08:43;39.67;;;20.23;;
13090;SDS011;6611;52.604;13.438;2023-02-11T09:13:45;34.70;;;20.37;;
13090;SDS011;6611;52.604;13.438;2023-02-11T09:18:47;38.73;;;19.87;;
13090;SDS011;6611;52.604;13.438;2023-02-11T09:23:51;40.10;;;21.30;;
13090;SDS011;6611;52.604;13.438;2023-02-11T09:28:52;35.77;;;19.70;;
13090;SDS011;6611;52.604;13.438;2023-02-11T09:33:55;38.87;;;21.07;;
13090;SDS011;6611;52.604;13.438;2023-02-11T09:38:59;42.00;;;19.90;;
13090;SDS011;6611;52.604;13.438;2023-02-11T09:44:02;40.30;;;20.00;;
13090;SDS011;6611;52.604;13.438;2023-02-11T09:49:09;36.03;;;19.43;;
13090;SDS011;6611;52.604;13.438;2023-02-11T09:54:22;38.37;;;18.90;;
13090;SDS011;6611;52.604;13.438;2023-02-11T09:59:28;37.43;;;18.90;;
13090;SDS011;6611;52.604;13.438;2023-02-11T10:04:35;40.60;;;19.87;;
13090;SDS011;6611;52.604;13.438;2023-02-11T10:09:49;37.87;;;20.00;;
13090;SDS011;6611;52.604;13.438;2023-02-11T10:15:05;38.53;;;18.60;;
13090;SDS011;6611;52.604;13.438;2023-02-11T10:20:15;32.87;;;18.27;;
13090;SDS011;6611;52.604;13.438;2023-02-11T10:25:26;34.57;;;17.30;;
13090;SDS011;6611;52.604;13.438;2023-02-11T10:30:35;36.47;;;19.33;;
13090;SDS011;6611;52.604;13.438;2023-02-11T10:35:40;37.23;;;19.90;;
13090;SDS011;6611;52.604;13.438;2023-02-11T10:40:44;35.97;;;18.10;;
13090;SDS011;6611;52.604;13.438;2023-02-11T10:45:46;33.87;;;18.60;;
13090;SDS011;6611;52.604;13.438;2023-02-11T10:50:50;34.97;;;17.53;;
13090;SDS011;6611;52.604;13.438;2023-02-11T10:55:58;34.43;;;16.87;;
13090;SDS011;6611;52.604;13.438;2023-02-11T11:01:00;32.67;;;17.57;;
13090;SDS011;6611;52.604;13.438;2023-02-11T11:06:04;33.37;;;16.43;;
13090;SDS011;6611;52.604;13.438;2023-02-11T11:11:09;35.93;;;17.80;;
13090;SDS011;6611;52.604;13.438;2023-02-11T11:16:20;29.57;;;16.10;;
13090;SDS011;6611;52.604;13.438;2023-02-11T11:21:24;28.67;;;14.77;;
13090;SDS011;6611;52.604;13.438;2023-02-11T11:26:42;34.13;;;16.53;;
13090;SDS011;6611;52.604;13.438;2023-02-11T11:31:47;28.07;;;15.97;;
13090;SDS011;6611;52.604;13.438;2023-02-11T11:36:51;26.40;;;14.20;;
13090;SDS011;6611;52.604;13.438;2023-02-11T11:41:56;24.73;;;13.43;;
13090;SDS011;6611;52.604;13.438;2023-02-11T11:47:07;26.60;;;14.37;;
13090;SDS011;6611;52.604;13.438;2023-02-11T11:52:32;27.43;;;13.77;;
13090;SDS011;6611;52.604;13.438;2023-02-11T11:57:41;26.07;;;13.50;;
13090;SDS011;6611;52.604;13.438;2023-02-11T12:02:51;25.97;;;13.73;;
13090;SDS011;6611;52.604;13.438;2023-02-11T12:08:14;23.60;;;13.60;;
13090;SDS011;6611;52.604;13.438;2023-02-11T12:13:25;26.93;;;12.40;;
13090;SDS011;6611;52.604;13.438;2023-02-11T12:18:40;23.47;;;12.80;;
13090;SDS011;6611;52.604;13.438;2023-02-11T12:24:01;21.33;;;11.83;;
13090;SDS011;6611;52.604;13.438;2023-02-11T12:29:19;22.10;;;10.57;;
13090;SDS011;6611;52.604;13.438;2023-02-11T12:34:34;22.67;;;10.90;;
13090;SDS011;6611;52.604;13.438;2023-02-11T12:39:49;20.40;;;11.03;;
13090;SDS011;6611;52.604;13.438;2023-02-11T12:44:57;17.27;;;10.37;;
13090;SDS011;6611;52.604;13.438;2023-02-11T12:50:12;19.03;;;11.23;;
13090;SDS011;6611;52.604;13.438;2023-02-11T12:55:23;22.23;;;11.00;;
13090;SDS011;6611;52.604;13.438;2023-02-11T13:00:29;18.13;;;10.67;;
13090;SDS011;6611;52.604;13.438;2023-02-11T13:05:39;20.87;;;11.93;;
13090;SDS011;6611;52.604;13.438;2023-02-11T13:10:46;24.10;;;12.37;;
13090;SDS011;6611;52.604;13.438;2023-02-11T13:15:53;18.23;;;10.90;;
13090;SDS011;6611;52.604;13.438;2023-02-11T13:20:58;17.00;;;10.10;;
13090;SDS011;6611;52.604;13.438;2023-02-11T13:26:11;19.47;;;10.47;;
13090;SDS011;6611;52.604;13.438;2023-02-11T13:31:21;23.20;;;10.23;;
13090;SDS011;6611;52.604;13.438;2023-02-11T13:36:26;20.73;;;9.40;;
13090;SDS011;6611;52.604;13.438;2023-02-11T13:41:33;18.37;;;10.23;;
13090;SDS011;6611;52.604;13.438;2023-02-11T13:51:58;14.33;;;9.40;;
13090;SDS011;6611;52.604;13.438;2023-02-11T13:57:18;18.13;;;9.87;;
13090;SDS011;6611;52.604;13.438;2023-02-11T14:02:26;16.40;;;9.87;;
13090;SDS011;6611;52.604;13.438;2023-02-11T14:13:36;15.93;;;9.03;;
13090;SDS011;6611;52.604;13.438;2023-02-11T14:19:32;13.77;;;8.37;;
13090;SDS011;6611;52.604;13.438;2023-02-11T14:24:42;12.93;;;7.70;;
13090;SDS011;6611;52.604;13.438;2023-02-11T14:29:50;11.63;;;7.73;;
13090;SDS011;6611;52.604;13.438;2023-02-11T14:35:05;13.00;;;8.23;;
13090;SDS011;6611;52.604;13.438;2023-02-11T14:40:16;12.37;;;8.47;;
13090;SDS011;6611;52.604;13.438;2023-02-11T14:45:24;14.00;;;8.03;;
13090;SDS011;6611;52.604;13.438;2023-02-11T14:50:31;12.80;;;7.50;;
13090;SDS011;6611;52.604;13.438;2023-02-11T14:55:38;10.60;;;7.60;;
13090;SDS011;6611;52.604;13.438;2023-02-11T15:00:46;10.67;;;6.23;;
13090;SDS011;6611;52.604;13.438;2023-02-11T15:05:55;12.63;;;7.70;;
13090;SDS011;6611;52.604;13.438;2023-02-11T15:10:59;11.57;;;7.77;;
13090;SDS011;6611;52.604;13.438;2023-02-11T15:16:04;11.13;;;6.53;;
13090;SDS011;6611;52.604;13.438;2023-02-11T15:21:09;12.57;;;7.40;;
13090;SDS011;6611;52.604;13.438;2023-02-11T15:26:11;10.70;;;6.93;;
13090;SDS011;6611;52.604;13.438;2023-02-11T15:31:15;10.20;;;6.03;;
13090;SDS011;6611;52.604;13.438;2023-02-11T15:36:21;11.23;;;6.83;;
13090;SDS011;6611;52.604;13.438;2023-02-11T15:41:32;10.10;;;6.20;;
13090;SDS011;6611;52.604;13.438;2023-02-11T15:46:36;10.57;;;7.63;;
13090;SDS011;6611;52.604;13.438;2023-02-11T15:51:41;9.63;;;6.23;;
13090;SDS011;6611;52.604;13.438;2023-02-11T15:56:46;9.37;;;5.80;;
13090;SDS011;6611;52.604;13.438;2023-02-11T16:01:50;11.07;;;6.13;;
13090;SDS011;6611;52.604;13.438;2023-02-11T16:06:54;8.83;;;5.40;;
13090;SDS011;6611;52.604;13.438;2023-02-11T16:11:57;8.27;;;5.60;;
13090;SDS011;6611;52.604;13.438;2023-02-11T16:17:01;10.40;;;6.57;;
13090;SDS011;6611;52.604;13.438;2023-02-11T16:22:08;8.43;;;5.57;;
13090;SDS011;6611;52.604;13.438;2023-02-11T16:27:17;9.00;;;5.03;;
13090;SDS011;6611;52.604;13.438;2023-02-11T16:32:22;7.53;;;4.73;;
13090;SDS011;6611;52.604;13.438;2023-02-11T16:37:26;6.90;;;4.53;;
13090;SDS011;6611;52.604;13.438;2023-02-11T16:42:28;8.00;;;5.03;;
13090;SDS011;6611;52.604;13.438;2023-02-11T16:47:29;7.53;;;5.23;;
13090;SDS011;6611;52.604;13.438;2023-02-11T16:52:33;7.37;;;4.53;;
13090;SDS011;6611;52.604;13.438;2023-02-11T16:57:36;7.33;;;4.67;;
13090;SDS011;6611;52.604;13.438;2023-02-11T17:02:38;8.30;;;4.60;;
13090;SDS011;6611;52.604;13.438;2023-02-11T17:07:41;5.70;;;4.17;;
13090;SDS011;6611;52.604;13.438;2023-02-11T17:12:43;5.83;;;4.20;;
13090;SDS011;6611;52.604;13.438;2023-02-11T17:17:44;5.57;;;4.30;;
13090;SDS011;6611;52.604;13.438;2023-02-11T17:22:48;6.57;;;4.50;;
13090;SDS011;6611;52.604;13.438;2023-02-11T17:27:50;5.13;;;3.97;;
13090;SDS011;6611;52.604;13.438;2023-02-11T17:32:52;6.43;;;4.17;;
13090;SDS011;6611;52.604;13.438;2023-02-11T17:37:55;6.93;;;4.43;;
13090;SDS011;6611;52.604;13.438;2023-02-11T17:42:58;7.73;;;4.90;;
13090;SDS011;6611;52.604;13.438;2023-02-11T17:48:00;7.50;;;4.53;;
13090;SDS011;6611;52.604;13.438;2023-02-11T17:53:03;6.77;;;4.20;;
13090;SDS011;6611;52.604;13.438;2023-02-11T17:58:04;4.63;;;3.67;;
13090;SDS011;6611;52.604;13.438;2023-02-11T18:03:06;6.40;;;3.70;;
13090;SDS011;6611;52.604;13.438;2023-02-11T18:08:09;5.67;;;3.57;;
13090;SDS011;6611;52.604;13.438;2023-02-11T18:13:11;6.07;;;3.87;;
13090;SDS011;6611;52.604;13.438;2023-02-11T18:18:13;5.07;;;4.17;;
13090;SDS011;6611;52.604;13.438;2023-02-11T18:23:16;6.23;;;4.60;;
13090;SDS011;6611;52.604;13.438;2023-02-11T18:28:17;5.97;;;3.87;;
13090;SDS011;6611;52.604;13.438;2023-02-11T18:33:19;6.37;;;4.43;;
13090;SDS011;6611;52.604;13.438;2023-02-11T18:38:22;8.17;;;4.70;;
13090;SDS011;6611;52.604;13.438;2023-02-11T18:43:25;6.67;;;4.27;;
13090;SDS011;6611;52.604;13.438;2023-02-11T18:48:30;7.80;;;5.53;;
13090;SDS011;6611;52.604;13.438;2023-02-11T18:53:33;5.80;;;4.50;;
13090;SDS011;6611;52.604;13.438;2023-02-11T18:58:35;6.57;;;4.03;;
13090;SDS011;6611;52.604;13.438;2023-02-11T19:03:37;5.87;;;3.90;;
13090;SDS011;6611;52.604;13.438;2023-02-11T19:08:40;6.33;;;4.13;;
13090;SDS011;6611;52.604;13.438;2023-02-11T19:13:42;6.53;;;4.50;;
13090;SDS011;6611;52.604;13.438;2023-02-11T19:18:46;6.27;;;4.10;;
13090;SDS011;6611;52.604;13.438;2023-02-11T19:23:49;5.50;;;4.03;;
13090;SDS011;6611;52.604;13.438;2023-02-11T19:28:51;5.63;;;3.97;;
13090;SDS011;6611;52.604;13.438;2023-02-11T19:33:53;7.53;;;4.53;;
13090;SDS011;6611;52.604;13.438;2023-02-11T19:38:58;8.10;;;4.43;;
13090;SDS011;6611;52.604;13.438;2023-02-11T19:44:00;5.97;;;4.30;;
13090;SDS011;6611;52.604;13.438;2023-02-11T19:49:03;6.80;;;4.57;;
13090;SDS011;6611;52.604;13.438;2023-02-11T19:54:06;6.47;;;4.37;;
13090;SDS011;6611;52.604;13.438;2023-02-11T19:59:08;8.03;;;4.57;;
13090;SDS011;6611;52.604;13.438;2023-02-11T20:04:09;7.30;;;4.57;;
13090;SDS011;6611;52.604;13.438;2023-02-11T20:09:13;6.50;;;4.57;;
13090;SDS011;6611;52.604;13.438;2023-02-11T20:14:15;7.93;;;4.47;;
13090;SDS011;6611;52.604;13.438;2023-02-11T20:19:17;9.50;;;5.47;;
13090;SDS011;6611;52.604;13.438;2023-02-11T20:24:22;6.47;;;4.70;;
13090;SDS011;6611;52.604;13.438;2023-02-11T20:29:25;6.03;;;4.53;;
13090;SDS011;6611;52.604;13.438;2023-02-11T20:34:30;7.93;;;4.80;;
13090;SDS011;6611;52.604;13.438;2023-02-11T20:39:33;6.43;;;4.30;;
13090;SDS011;6611;52.604;13.438;2023-02-11T20:44:36;5.50;;;4.07;;
13090;SDS011;6611;52.604;13.438;2023-02-11T20:49:38;7.40;;;4.53;;
13090;SDS011;6611;52.604;13.438;2023-02-11T20:54:41;6.10;;;3.97;;
13090;SDS011;6611;52.604;13.438;2023-02-11T20:59:42;7.53;;;3.97;;
13090;SDS011;6611;52.604;13.438;2023-02-11T21:04:44;6.43;;;3.90;;
13090;SDS011;6611;52.604;13.438;2023-02-11T21:09:47;9.93;;;4.17;;
13090;SDS011;6611;52.604;13.438;2023-02-11T21:14:48;6.70;;;3.67;;
13090;SDS011;6611;52.604;13.438;2023-02-11T21:19:50;6.23;;;3.40;;
13090;SDS011;6611;52.604;13.438;2023-02-11T21:24:53;8.33;;;3.53;;
13090;SDS011;6611;52.604;13.438;2023-02-11T21:29:55;7.10;;;3.90;;
13090;SDS011;6611;52.604;13.438;2023-02-11T21:34:57;6.57;;;3.83;;
13090;SDS011;6611;52.604;13.438;2023-02-11T21:40:00;5.70;;;3.23;;
13090;SDS011;6611;52.604;13.438;2023-02-11T21:45:02;8.00;;;3.73;;
13090;SDS011;6611;52.604;13.438;2023-02-11T21:50:04;5.50;;;3.47;;
13090;SDS011;6611;52.604;13.438;2023-02-11T21:55:08;4.80;;;3.57;;
13090;SDS011;6611;52.604;13.438;2023-02-11T22:00:10;7.70;;;3.80;;
13090;SDS011;6611;52.604;13.438;2023-02-11T22:05:13;7.03;;;3.50;;
13090;SDS011;6611;52.604;13.438;2023-02-11T22:10:16;5.93;;;3.47;;
13090;SDS011;6611;52.604;13.438;2023-02-11T22:15:18;7.57;;;3.10;;
13090;SDS011;6611;52.604;13.438;2023-02-11T22:20:20;8.73;;;3.10;;
13090;SDS011;6611;52.604;13.438;2023-02-11T22:25:23;6.90;;;2.70;;
13090;SDS011;6611;52.604;13.438;2023-02-11T22:30:24;8.20;;;2.63;;
13090;SDS011;6611;52.604;13.438;2023-02-11T22:35:27;12.70;;;3.40;;
13090;SDS011;6611;52.604;13.438;2023-02-11T22:40:31;9.17;;;2.80;;
13090;SDS011;6611;52.604;13.438;2023-02-11T22:45:33;6.37;;;3.00;;
13090;SDS011;6611;52.604;13.438;2023-02-11T22:50:35;8.57;;;2.93;;
13090;SDS011;6611;52.604;13.438;2023-02-11T22:55:38;7.63;;;2.97;;
13090;SDS011;6611;52.604;13.438;2023-02-11T23:00:40;10.53;;;3.13;;
13090;SDS011;6611;52.604;13.438;2023-02-11T23:05:42;10.30;;;3.37;;
13090;SDS011;6611;52.604;13.438;2023-02-11T23:10:45;7.40;;;3.13;;
13090;SDS011;6611;52.604;13.438;2023-02-11T23:15:48;11.10;;;3.30;;
13090;SDS011;6611;52.604;13.438;2023-02-11T23:20:50;8.27;;;3.33;;
13090;SDS011;6611;52.604;13.438;2023-02-11T23:25:53;4.97;;;3.27;;
13090;SDS011;6611;52.604;13.438;2023-02-11T23:30:54;8.07;;;3.20;;
13090;SDS011;6611;52.604;13.438;2023-02-11T23:35:56;7.90;;;3.17;;
13090;SDS011;6611;52.604;13.438;2023-02-11T23:40:59;10.97;;;3.30;;
13090;SDS011;6611;52.604;13.438;2023-02-11T23:46:01;7.23;;;3.30;;
13090;SDS011;6611;52.604;13.438;2023-02-11T23:51:03;8.60;;;3.10;;
13090;SDS011;6611;52.604;13.438;2023-02-11T23:56:07;9.20;;;3.70;;
